sensor_id;sensor_type;location;lat;lon;timestamp;pressure;altitude;pressure_sealevel;temperature;humidity
3178;BME280;38141;42.666;23.344;2023-06-10T00:02:20;94289.03;;;18.91;100.00
3178;BME280;38141;42.666;23.344;2023-06-10T00:04:46;94260.56;;;18.54;100.00
3178;BME280;38141;42.666;23.344;2023-06-10T00:07:14;94266.13;;;18.63;100.00
3178;BME280;38141;42.666;23.344;2023-06-10T00:09:43;94186.78;;;17.91;100.00
3178;BME280;38141;42.666;23.344;2023-06-10T00:12:10;94189.34;;;17.85;100.00
3178;BME280;38141;42.666;23.344;2023-06-10T00:14:38;94291.06;;;18.78;100.00
3178;BME280;38141;42.666;23.344;2023-06-10T00:17:06;94248.66;;;18.35;100.00
3178;BME280;38141;42.666;23.344;2023-06-10T00:19:35;94274.38;;;18.03;100.00
3178;BME280;38141;42.666;23.344;2023-06-10T00:22:02;94294.78;;;18.37;100.00
3178;BME280;38141;42.666;23.344;2023-06-10T00:24:30;94293.03;;;18.43;100.00
3178;BME280;38141;42.666;23.344;2023-06-10T00:26:58;94239.50;;;18.29;100.00
3178;BME280;38141;42.666;23.344;2023-06-10T00:29:25;94171.69;;;17.86;100.00
3178;BME280;38141;42.666;23.344;2023-06-10T00:31:52;94164.72;;;17.85;100.00
3178;BME280;38141;42.666;23.344;2023-06-10T00:34:22;94170.09;;;17.63;100.00
3178;BME280;38141;42.666;23.344;2023-06-10T00:36:50;94297.69;;;18.67;100.00
3178;BME280;38141;42.666;23.344;2023-06-10T00:39:17;94272.84;;;18.49;100.00
3178;BME280;38141;42.666;23.344;2023-06-10T00:41:43;94301.31;;;18.64;100.00
3178;BME280;38141;42.666;23.344;2023-06-10T00:44:12;94257.97;;;18.38;100.00
3178;BME280;38141;42.666;23.344;2023-06-10T00:46:39;94228.94;;;18.06;100.00
3178;BME280;38141;42.666;23.344;2023-06-10T00:49:06;94193.66;;;17.61;100.00
3178;BME280;38141;42.666;23.344;2023-06-10T00:51:33;94210.66;;;18.03;100.00
3178;BME280;38141;42.666;23.344;2023-06-10T00:54:02;94186.69;;;17.94;100.00
3178;BME280;38141;42.666;23.344;2023-06-10T00:56:29;94247.53;;;18.11;100.00
3178;BME280;38141;42.666;23.344;2023-06-10T00:58:56;94257.38;;;18.08;100.00
3178;BME280;38141;42.666;23.344;2023-06-10T01:01:25;94320.50;;;18.52;100.00
3178;BME280;38141;42.666;23.344;2023-06-10T01:03:52;94143.63;;;17.60;100.00
3178;BME280;38141;42.666;23.344;2023-06-10T01:06:26;94319.53;;;18.58;100.00
3178;BME280;38141;42.666;23.344;2023-06-10T01:09:03;94300.91;;;18.53;100.00
3178;BME280;38141;42.666;23.344;2023-06-10T01:11:36;94266.03;;;18.19;100.00
3178;BME280;38141;42.666;23.344;2023-06-10T01:14:04;94292.50;;;18.22;100.00
3178;BME280;38141;42.666;23.344;2023-06-10T01:16:34;94162.88;;;17.06;100.00
3178;BME280;38141;42.666;23.344;2023-06-10T01:19:02;94305.41;;;18.47;100.00
3178;BME280;38141;42.666;23.344;2023-06-10T01:21:30;94280.53;;;18.42;100.00
3178;BME280;38141;42.666;23.344;2023-06-10T01:23:57;94229.16;;;17.99;100.00
3178;BME280;38141;42.666;23.344;2023-06-10T01:26:27;94218.31;;;17.95;100.00
3178;BME280;38141;42.666;23.344;2023-06-10T01:28:58;94186.69;;;17.94;100.00
3178;BME280;38141;42.666;23.344;2023-06-10T01:31:33;94283.16;;;18.45;100.00
3178;BME280;38141;42.666;23.344;2023-06-10T01:34:08;94282.75;;;18.34;100.00
3178;BME280;38141;42.666;23.344;2023-06-10T01:36:37;94212.78;;;17.73;100.00
3178;BME280;38141;42.666;23.344;2023-06-10T01:39:05;94249.75;;;17.91;100.00
3178;BME280;38141;42.666;23.344;2023-06-10T01:41:34;94161.25;;;17.47;100.00
3178;BME280;38141;42.666;23.344;2023-06-10T01:44:02;94301.03;;;18.37;100.00
3178;BME280;38141;42.666;23.344;2023-06-10T01:46:29;94305.75;;;18.37;100.00
3178;BME280;38141;42.666;23.344;2023-06-10T01:48:56;94262.84;;;18.21;100.00
3178;BME280;38141;42.666;23.344;2023-06-10T01:51:23;94128.00;;;17.48;100.00
3178;BME280;38141;42.666;23.344;2023-06-10T01:53:51;94275.59;;;18.62;100.00
3178;BME280;38141;42.666;23.344;2023-06-10T01:56:18;94225.06;;;18.16;100.00
3178;BME280;38141;42.666;23.344;2023-06-10T01:58:45;94202.09;;;18.01;100.00
3178;BME280;38141;42.666;23.344;2023-06-10T02:01:12;94266.00;;;18.32;100.00
3178;BME280;38141;42.666;23.344;2023-06-10T02:03:39;94258.69;;;18.16;100.00
3178;BME280;38141;42.666;23.344;2023-06-10T02:06:06;94186.41;;;17.67;100.00
3178;BME280;38141;42.666;23.344;2023-06-10T02:08:33;94219.25;;;18.14;100.00
3178;BME280;38141;42.666;23.344;2023-06-10T02:11:02;94157.16;;;17.76;100.00
3178;BME280;38141;42.666;23.344;2023-06-10T02:13:29;94215.31;;;18.15;100.00
3178;BME280;38141;42.666;23.344;2023-06-10T02:15:56;94246.25;;;18.37;100.00
3178;BME280;38141;42.666;23.344;2023-06-10T02:18:23;94281.94;;;18.59;100.00
3178;BME280;38141;42.666;23.344;2023-06-10T02:20:52;94172.81;;;17.89;100.00
3178;BME280;38141;42.666;23.344;2023-06-10T02:23:19;94177.69;;;18.06;100.00
3178;BME280;38141;42.666;23.344;2023-06-10T02:25:46;94267.81;;;18.60;100.00
3178;BME280;38141;42.666;23.344;2023-06-10T02:28:15;94242.53;;;18.31;100.00
3178;BME280;38141;42.666;23.344;2023-06-10T02:30:42;94230.06;;;18.30;100.00
3178;BME280;38141;42.666;23.344;2023-06-10T02:33:09;94260.22;;;18.64;100.00
3178;BME280;38141;42.666;23.344;2023-06-10T02:35:36;94249.84;;;18.47;100.00
3178;BME280;38141;42.666;23.344;2023-06-10T02:38:03;94234.31;;;18.44;100.00
3178;BME280;38141;42.666;23.344;2023-06-10T02:40:30;94291.56;;;18.63;100.00
3178;BME280;38141;42.666;23.344;2023-06-10T02:42:57;94209.50;;;18.26;100.00
3178;BME280;38141;42.666;23.344;2023-06-10T02:45:26;94252.84;;;18.74;100.00
3178;BME280;38141;42.666;23.344;2023-06-10T02:47:52;94130.38;;;17.71;100.00
3178;BME280;38141;42.666;23.344;2023-06-10T02:50:19;94253.00;;;18.58;100.00
3178;BME280;38141;42.666;23.344;2023-06-10T02:52:46;94199.47;;;18.10;100.00
3178;BME280;38141;42.666;23.344;2023-06-10T02:55:13;94137.22;;;17.89;100.00
3178;BME280;38141;42.666;23.344;2023-06-10T02:57:40;94209.03;;;18.27;100.00
3178;BME280;38141;42.666;23.344;2023-06-10T03:00:08;94153.09;;;17.81;100.00
3178;BME280;38141;42.666;23.344;2023-06-10T03:02:38;94265.00;;;18.39;100.00
3178;BME280;38141;42.666;23.344;2023-06-10T03:05:05;94142.38;;;17.87;100.00
3178;BME280;38141;42.666;23.344;2023-06-10T03:07:35;94247.09;;;18.59;100.00
3178;BME280;38141;42.666;23.344;2023-06-10T03:10:03;94249.84;;;18.47;100.00
3178;BME280;38141;42.666;23.344;2023-06-10T03:12:30;94219.47;;;18.19;100.00
3178;BME280;38141;42.666;23.344;2023-06-10T03:14:56;94258.28;;;18.52;100.00
3178;BME280;38141;42.666;23.344;2023-06-10T03:17:23;94158.94;;;18.05;100.00
3178;BME280;38141;42.666;23.344;2023-06-10T03:19:52;94263.28;;;18.67;100.00
3178;BME280;38141;42.666;23.344;2023-06-10T03:22:19;94279.91;;;18.72;100.00
3178;BME280;38141;42.666;23.344;2023-06-10T03:24:45;94259.22;;;18.71;100.00
3178;BME280;38141;42.666;23.344;2023-06-10T03:27:16;94166.72;;;18.06;100.00
3178;BME280;38141;42.666;23.344;2023-06-10T03:29:43;94212.25;;;18.26;100.00
3178;BME280;38141;42.666;23.344;2023-06-10T03:32:09;94302.53;;;18.63;100.00
3178;BME280;38141;42.666;23.344;2023-06-10T03:34:36;94146.03;;;17.71;100.00
3178;BME280;38141;42.666;23.344;2023-06-10T03:37:05;94305.06;;;18.58;100.00
3178;BME280;38141;42.666;23.344;2023-06-10T03:39:32;94114.97;;;17.65;100.00
3178;BME280;38141;42.666;23.344;2023-06-10T03:41:59;94207.13;;;18.15;100.00
3178;BME280;38141;42.666;23.344;2023-06-10T03:44:26;94259.38;;;18.55;100.00
3178;BME280;38141;42.666;23.344;2023-06-10T03:46:55;94283.34;;;18.63;100.00
3178;BME280;38141;42.666;23.344;2023-06-10T03:49:23;94276.59;;;18.77;100.00
3178;BME280;38141;42.666;23.344;2023-06-10T03:51:52;94274.84;;;18.83;100.00
3178;BME280;38141;42.666;23.344;2023-06-10T03:54:20;94194.19;;;18.15;100.00
3178;BME280;38141;42.666;23.344;2023-06-10T03:56:47;94168.44;;;17.78;100.00
3178;BME280;38141;42.666;23.344;2023-06-10T03:59:14;94282.97;;;18.74;100.00
3178;BME280;38141;42.666;23.344;2023-06-10T04:01:42;94269.16;;;18.43;100.00
3178;BME280;38141;42.666;23.344;2023-06-10T04:04:10;94201.03;;;17.86;100.00
3178;BME280;38141;42.666;23.344;2023-06-10T04:06:37;94216.78;;;18.07;100.00
3178;BME280;38141;42.666;23.344;2023-06-10T04:09:05;94288.38;;;18.65;100.00
3178;BME280;38141;42.666;23.344;2023-06-10T04:11:35;94189.03;;;17.58;100.00
3178;BME280;38141;42.666;23.344;2023-06-10T04:14:05;94200.84;;;17.55;100.00
3178;BME280;38141;42.666;23.344;2023-06-10T04:16:32;94281.78;;;18.28;100.00
3178;BME280;38141;42.666;23.344;2023-06-10T04:18:59;94295.75;;;18.55;100.00
3178;BME280;38141;42.666;23.344;2023-06-10T04:21:26;94225.16;;;17.65;100.00
3178;BME280;38141;42.666;23.344;2023-06-10T04:23:53;94165.84;;;17.37;100.00
3178;BME280;38141;42.666;23.344;2023-06-10T04:26:20;94241.78;;;17.71;100.00
3178;BME280;38141;42.666;23.344;2023-06-10T04:28:51;94279.47;;;18.27;100.00
3178;BME280;38141;42.666;23.344;2023-06-10T04:31:18;94105.03;;;16.95;100.00
3178;BME280;38141;42.666;23.344;2023-06-10T04:33:46;94269.69;;;17.78;100.00
3178;BME280;38141;42.666;23.344;2023-06-10T04:36:12;94202.69;;;17.45;100.00
3178;BME280;38141;42.666;23.344;2023-06-10T04:38:40;94234.19;;;17.37;100.00
3178;BME280;38141;42.666;23.344;2023-06-10T04:41:07;94238.50;;;17.89;100.00
3178;BME280;38141;42.666;23.344;2023-06-10T04:43:34;94278.69;;;18.26;100.00
3178;BME280;38141;42.666;23.344;2023-06-10T04:46:03;94272.69;;;18.18;100.00
3178;BME280;38141;42.666;23.344;2023-06-10T04:48:30;94269.31;;;18.14;100.00
3178;BME280;38141;42.666;23.344;2023-06-10T04:50:57;94262.59;;;18.28;100.00
3178;BME280;38141;42.666;23.344;2023-06-10T04:53:24;94256.00;;;18.38;100.00
3178;BME280;38141;42.666;23.344;2023-06-10T04:55:51;94276.59;;;18.77;100.00
3178;BME280;38141;42.666;23.344;2023-06-10T04:58:17;94226.41;;;18.46;100.00
3178;BME280;38141;42.666;23.344;2023-06-10T05:00:44;94140.47;;;17.96;100.00
3178;BME280;38141;42.666;23.344;2023-06-10T05:03:12;94163.19;;;18.18;100.00
3178;BME280;38141;42.666;23.344;2023-06-10T05:05:39;94134.47;;;18.23;100.00
3178;BME280;38141;42.666;23.344;2023-06-10T05:08:06;94171.94;;;18.48;100.00
3178;BME280;38141;42.666;23.344;2023-06-10T05:10:33;94289.81;;;19.35;100.00
3178;BME280;38141;42.666;23.344;2023-06-10T05:13:06;94202.47;;;18.81;100.00
3178;BME280;38141;42.666;23.344;2023-06-10T05:15:35;94248.09;;;19.18;100.00
3178;BME280;38141;42.666;23.344;2023-06-10T05:18:09;94248.63;;;19.26;100.00
3178;BME280;38141;42.666;23.344;2023-06-10T05:20:39;94247.53;;;19.23;100.00
3178;BME280;38141;42.666;23.344;2023-06-10T05:23:08;94245.66;;;19.42;100.00
3178;BME280;38141;42.666;23.344;2023-06-10T05:25:49;94201.84;;;19.29;100.00
3178;BME280;38141;42.666;23.344;2023-06-10T05:28:21;94220.91;;;19.33;100.00
3178;BME280;38141;42.666;23.344;2023-06-10T05:31:14;94149.72;;;18.89;100.00
3178;BME280;38141;42.666;23.344;2023-06-10T05:34:04;94198.97;;;19.33;100.00
3178;BME280;38141;42.666;23.344;2023-06-10T05:36:50;94265.66;;;19.82;100.00
3178;BME280;38141;42.666;23.344;2023-06-10T05:39:19;94275.28;;;19.87;100.00
3178;BME280;38141;42.666;23.344;2023-06-10T05:42:02;94118.00;;;19.19;100.00
3178;BME280;38141;42.666;23.344;2023-06-10T05:44:29;94232.47;;;19.59;100.00
3178;BME280;38141;42.666;23.344;2023-06-10T05:47:01;94136.75;;;19.21;100.00
3178;BME280;38141;42.666;23.344;2023-06-10T05:49:42;94293.84;;;20.14;100.00
3178;BME280;38141;42.666;23.344;2023-06-10T05:52:28;94233.47;;;19.74;100.00
3178;BME280;38141;42.666;23.344;2023-06-10T05:54:55;94197.44;;;19.72;100.00
3178;BME280;38141;42.666;23.344;2023-06-10T05:57:22;94248.16;;;20.38;100.00
3178;BME280;38141;42.666;23.344;2023-06-10T05:59:48;94275.50;;;20.60;100.00
3178;BME280;38141;42.666;23.344;2023-06-10T06:02:15;94297.94;;;21.04;100.00
3178;BME280;38141;42.666;23.344;2023-06-10T06:04:42;94300.72;;;21.04;100.00
3178;BME280;38141;42.666;23.344;2023-06-10T06:07:09;94281.78;;;21.15;100.00
3178;BME280;38141;42.666;23.344;2023-06-10T06:12:48;94272.16;;;21.19;100.00
3178;BME280;38141;42.666;23.344;2023-06-10T06:15:15;94294.28;;;21.43;100.00
3178;BME280;38141;42.666;23.344;2023-06-10T06:17:47;94270.72;;;21.51;100.00
3178;BME280;38141;42.666;23.344;2023-06-10T06:20:15;94185.06;;;20.89;100.00
3178;BME280;38141;42.666;23.344;2023-06-10T06:22:44;94296.84;;;21.56;100.00
3178;BME280;38141;42.666;23.344;2023-06-10T06:25:11;94265.44;;;21.02;100.00
3178;BME280;38141;42.666;23.344;2023-06-10T06:27:38;94298.88;;;21.01;100.00
3178;BME280;38141;42.666;23.344;2023-06-10T06:30:08;94268.78;;;21.24;100.00
3178;BME280;38141;42.666;23.344;2023-06-10T06:32:35;94310.28;;;21.63;100.00
3178;BME280;38141;42.666;23.344;2023-06-10T06:35:02;94306.31;;;21.64;100.00
3178;BME280;38141;42.666;23.344;2023-06-10T06:37:31;94301.63;;;21.37;100.00
3178;BME280;38141;42.666;23.344;2023-06-10T06:39:58;94309.22;;;21.60;100.00
3178;BME280;38141;42.666;23.344;2023-06-10T06:42:25;94283.53;;;21.54;100.00
3178;BME280;38141;42.666;23.344;2023-06-10T06:44:52;94270.50;;;21.64;100.00
3178;BME280;38141;42.666;23.344;2023-06-10T06:47:20;94283.28;;;21.94;100.00
3178;BME280;38141;42.666;23.344;2023-06-10T06:49:47;94290.81;;;22.17;100.00
3178;BME280;38141;42.666;23.344;2023-06-10T06:52:14;94292.22;;;22.13;100.00
3178;BME280;38141;42.666;23.344;2023-06-10T06:54:42;94284.13;;;22.42;100.00
3178;BME280;38141;42.666;23.344;2023-06-10T06:57:08;94176.09;;;21.30;100.00
3178;BME280;38141;42.666;23.344;2023-06-10T06:59:36;94285.84;;;22.31;100.00
3178;BME280;38141;42.666;23.344;2023-06-10T07:02:03;94297.34;;;22.62;100.00
3178;BME280;38141;42.666;23.344;2023-06-10T07:04:31;94264.41;;;22.58;100.00
3178;BME280;38141;42.666;23.344;2023-06-10T07:06:58;94294.47;;;23.19;100.00
3178;BME280;38141;42.666;23.344;2023-06-10T07:09:25;94236.78;;;23.06;100.00
3178;BME280;38141;42.666;23.344;2023-06-10T07:11:53;94289.28;;;23.50;100.00
3178;BME280;38141;42.666;23.344;2023-06-10T07:14:20;94262.72;;;23.53;100.00
3178;BME280;38141;42.666;23.344;2023-06-10T07:16:47;94285.88;;;23.84;100.00
3178;BME280;38141;42.666;23.344;2023-06-10T07:19:15;94284.81;;;23.82;100.00
3178;BME280;38141;42.666;23.344;2023-06-10T07:21:45;94242.59;;;23.81;100.00
3178;BME280;38141;42.666;23.344;2023-06-10T07:24:13;94282.16;;;24.37;100.00
3178;BME280;38141;42.666;23.344;2023-06-10T07:26:40;94278.94;;;24.79;100.00
3178;BME280;38141;42.666;23.344;2023-06-10T07:29:07;94218.59;;;24.63;100.00
3178;BME280;38141;42.666;23.344;2023-06-10T07:31:34;94274.78;;;24.69;100.00
3178;BME280;38141;42.666;23.344;2023-06-10T07:34:01;94266.78;;;24.91;98.19
3178;BME280;38141;42.666;23.344;2023-06-10T07:36:28;94263.41;;;25.28;95.42
3178;BME280;38141;42.666;23.344;2023-06-10T07:38:56;94262.25;;;25.40;95.24
3178;BME280;38141;42.666;23.344;2023-06-10T07:41:23;94211.94;;;25.15;90.83
3178;BME280;38141;42.666;23.344;2023-06-10T07:43:52;94280.81;;;26.48;82.85
3178;BME280;38141;42.666;23.344;2023-06-10T07:46:20;94260.34;;;25.77;80.46
3178;BME280;38141;42.666;23.344;2023-06-10T07:48:47;94261.25;;;25.94;85.95
3178;BME280;38141;42.666;23.344;2023-06-10T07:51:16;94285.53;;;26.05;80.06
3178;BME280;38141;42.666;23.344;2023-06-10T07:53:59;94220.00;;;26.02;80.13
3178;BME280;38141;42.666;23.344;2023-06-10T07:56:26;94271.72;;;26.90;74.78
3178;BME280;38141;42.666;23.344;2023-06-10T07:58:53;94249.69;;;27.51;68.96
3178;BME280;38141;42.666;23.344;2023-06-10T08:01:22;94255.56;;;26.94;65.06
3178;BME280;38141;42.666;23.344;2023-06-10T08:03:56;94277.41;;;26.70;64.46
3178;BME280;38141;42.666;23.344;2023-06-10T08:06:23;94299.59;;;27.18;60.58
3178;BME280;38141;42.666;23.344;2023-06-10T08:08:50;94235.22;;;27.25;57.66
3178;BME280;38141;42.666;23.344;2023-06-10T08:11:32;94261.59;;;28.13;52.55
3178;BME280;38141;42.666;23.344;2023-06-10T08:13:59;94205.50;;;27.70;53.67
3178;BME280;38141;42.666;23.344;2023-06-10T08:16:26;94191.03;;;27.38;53.30
3178;BME280;38141;42.666;23.344;2023-06-10T08:18:53;94156.09;;;26.87;52.58
3178;BME280;38141;42.666;23.344;2023-06-10T08:21:20;94245.16;;;27.93;52.33
3178;BME280;38141;42.666;23.344;2023-06-10T08:23:54;94166.72;;;26.94;54.85
3178;BME280;38141;42.666;23.344;2023-06-10T08:29:45;94265.41;;;29.12;50.53
3178;BME280;38141;42.666;23.344;2023-06-10T08:32:12;94220.25;;;29.30;46.44
3178;BME280;38141;42.666;23.344;2023-06-10T08:34:39;94233.19;;;30.04;43.72
3178;BME280;38141;42.666;23.344;2023-06-10T08:37:08;94214.38;;;29.75;42.24
3178;BME280;38141;42.666;23.344;2023-06-10T08:39:35;94253.00;;;29.65;43.45
3178;BME280;38141;42.666;23.344;2023-06-10T08:42:11;94201.91;;;29.46;44.21
3178;BME280;38141;42.666;23.344;2023-06-10T08:44:39;94250.28;;;29.89;42.54
3178;BME280;38141;42.666;23.344;2023-06-10T08:47:13;94244.91;;;30.57;43.37
3178;BME280;38141;42.666;23.344;2023-06-10T08:49:43;94247.69;;;30.57;42.50
3178;BME280;38141;42.666;23.344;2023-06-10T08:52:13;94244.66;;;29.95;42.83
3178;BME280;38141;42.666;23.344;2023-06-10T08:54:43;94223.88;;;29.96;43.79
3178;BME280;38141;42.666;23.344;2023-06-10T08:57:10;94226.47;;;30.42;43.10
3178;BME280;38141;42.666;23.344;2023-06-10T08:59:37;94233.97;;;31.39;40.95
3178;BME280;38141;42.666;23.344;2023-06-10T09:02:08;94240.97;;;32.02;40.20
3178;BME280;38141;42.666;23.344;2023-06-10T09:04:36;94228.75;;;32.31;39.43
3178;BME280;38141;42.666;23.344;2023-06-10T09:07:03;94229.16;;;33.06;38.81
3178;BME280;38141;42.666;23.344;2023-06-10T09:09:31;94218.38;;;31.81;40.58
3178;BME280;38141;42.666;23.344;2023-06-10T09:11:59;94218.47;;;32.92;38.93
3178;BME280;38141;42.666;23.344;2023-06-10T09:14:25;94220.53;;;32.78;37.68
3178;BME280;38141;42.666;23.344;2023-06-10T09:16:52;94221.25;;;32.52;37.79
3178;BME280;38141;42.666;23.344;2023-06-10T09:19:23;94219.13;;;32.98;38.94
3178;BME280;38141;42.666;23.344;2023-06-10T09:21:50;94219.84;;;33.72;37.56
3178;BME280;38141;42.666;23.344;2023-06-10T09:24:18;94223.00;;;34.30;35.48
3178;BME280;38141;42.666;23.344;2023-06-10T09:26:44;94215.56;;;35.18;34.53
3178;BME280;38141;42.666;23.344;2023-06-10T09:29:11;94211.88;;;34.17;35.32
3178;BME280;38141;42.666;23.344;2023-06-10T09:31:39;94215.81;;;32.15;37.13
3178;BME280;38141;42.666;23.344;2023-06-10T09:34:07;94220.47;;;33.78;36.25
3178;BME280;38141;42.666;23.344;2023-06-10T09:36:36;94193.19;;;33.65;34.86
3178;BME280;38141;42.666;23.344;2023-06-10T09:39:04;94183.84;;;34.25;34.78
3178;BME280;38141;42.666;23.344;2023-06-10T09:41:34;94190.63;;;34.86;33.12
3178;BME280;38141;42.666;23.344;2023-06-10T09:44:01;94200.47;;;35.08;33.36
3178;BME280;38141;42.666;23.344;2023-06-10T09:46:31;94199.44;;;34.13;35.39
3178;BME280;38141;42.666;23.344;2023-06-10T09:48:58;94190.06;;;35.75;33.03
3178;BME280;38141;42.666;23.344;2023-06-10T09:51:25;94188.63;;;36.11;32.31
3178;BME280;38141;42.666;23.344;2023-06-10T09:53:54;94203.66;;;37.30;30.66
3178;BME280;38141;42.666;23.344;2023-06-10T09:56:21;94193.28;;;36.77;31.35
3178;BME280;38141;42.666;23.344;2023-06-10T09:58:52;94194.03;;;35.28;32.69
3178;BME280;38141;42.666;23.344;2023-06-10T10:01:19;94156.72;;;34.92;33.80
3178;BME280;38141;42.666;23.344;2023-06-10T10:03:47;94179.97;;;34.64;34.49
3178;BME280;38141;42.666;23.344;2023-06-10T10:06:14;94187.81;;;35.65;33.50
3178;BME280;38141;42.666;23.344;2023-06-10T10:08:42;94179.94;;;35.94;33.00
3178;BME280;38141;42.666;23.344;2023-06-10T10:11:10;94179.94;;;35.79;32.68
3178;BME280;38141;42.666;23.344;2023-06-10T10:13:38;94173.91;;;34.24;33.49
3178;BME280;38141;42.666;23.344;2023-06-10T10:16:09;94153.22;;;33.72;34.70
3178;BME280;38141;42.666;23.344;2023-06-10T10:18:39;94165.25;;;33.26;36.90
3178;BME280;38141;42.666;23.344;2023-06-10T10:21:12;94165.22;;;32.52;35.21
3178;BME280;38141;42.666;23.344;2023-06-10T10:23:44;94143.47;;;31.23;35.98
3178;BME280;38141;42.666;23.344;2023-06-10T10:26:14;94166.72;;;31.31;37.08
3178;BME280;38141;42.666;23.344;2023-06-10T10:28:44;94167.81;;;31.10;38.24
3178;BME280;38141;42.666;23.344;2023-06-10T10:31:14;94159.28;;;31.53;38.03
3178;BME280;38141;42.666;23.344;2023-06-10T10:33:51;94148.72;;;30.89;37.72
3178;BME280;38141;42.666;23.344;2023-06-10T10:36:19;94160.06;;;30.78;38.37
3178;BME280;38141;42.666;23.344;2023-06-10T10:38:47;94151.50;;;30.52;38.23
3178;BME280;38141;42.666;23.344;2023-06-10T10:41:16;94161.38;;;30.53;39.05
3178;BME280;38141;42.666;23.344;2023-06-10T10:43:45;94156.84;;;30.50;39.39
3178;BME280;38141;42.666;23.344;2023-06-10T10:46:14;94139.75;;;30.78;36.82
3178;BME280;38141;42.666;23.344;2023-06-10T10:48:42;94125.69;;;31.21;36.85
3178;BME280;38141;42.666;23.344;2023-06-10T10:51:09;94151.75;;;31.48;37.33
3178;BME280;38141;42.666;23.344;2023-06-10T10:53:37;94146.31;;;32.00;37.12
3178;BME280;38141;42.666;23.344;2023-06-10T10:56:05;94136.69;;;32.28;36.58
3178;BME280;38141;42.666;23.344;2023-06-10T10:58:33;94134.03;;;31.08;38.74
3178;BME280;38141;42.666;23.344;2023-06-10T11:01:10;94145.03;;;29.90;40.51
3178;BME280;38141;42.666;23.344;2023-06-10T11:03:42;94118.31;;;29.40;41.44
3178;BME280;38141;42.666;23.344;2023-06-10T11:06:13;94110.81;;;29.59;42.16
3178;BME280;38141;42.666;23.344;2023-06-10T11:08:47;94131.09;;;29.60;42.35
3178;BME280;38141;42.666;23.344;2023-06-10T11:11:20;94132.72;;;29.44;40.50
3178;BME280;38141;42.666;23.344;2023-06-10T11:14:06;94131.44;;;30.05;41.13
3178;BME280;38141;42.666;23.344;2023-06-10T11:16:39;94123.47;;;29.90;40.34
3178;BME280;38141;42.666;23.344;2023-06-10T11:19:07;94113.75;;;30.21;40.16
3178;BME280;38141;42.666;23.344;2023-06-10T11:21:45;94115.00;;;30.01;40.35
3178;BME280;38141;42.666;23.344;2023-06-10T11:24:23;94095.88;;;30.11;41.70
3178;BME280;38141;42.666;23.344;2023-06-10T11:26:50;94096.13;;;29.89;41.08
3178;BME280;38141;42.666;23.344;2023-06-10T11:29:18;94108.59;;;29.17;41.33
3178;BME280;38141;42.666;23.344;2023-06-10T11:31:49;94093.69;;;28.68;42.61
3178;BME280;38141;42.666;23.344;2023-06-10T11:34:21;94082.06;;;28.64;43.71
3178;BME280;38141;42.666;23.344;2023-06-10T11:36:51;94092.63;;;29.17;42.54
3178;BME280;38141;42.666;23.344;2023-06-10T11:39:19;94079.22;;;29.16;42.44
3178;BME280;38141;42.666;23.344;2023-06-10T11:41:46;94077.25;;;29.41;42.21
3178;BME280;38141;42.666;23.344;2023-06-10T11:44:14;94088.53;;;29.30;43.71
3178;BME280;38141;42.666;23.344;2023-06-10T11:46:44;94082.69;;;28.92;44.19
3178;BME280;38141;42.666;23.344;2023-06-10T11:49:11;94078.72;;;29.12;43.34
3178;BME280;38141;42.666;23.344;2023-06-10T11:51:39;94051.97;;;28.16;44.40
3178;BME280;38141;42.666;23.344;2023-06-10T11:54:08;94068.16;;;28.64;44.96
3178;BME280;38141;42.666;23.344;2023-06-10T11:56:35;94033.19;;;28.74;45.32
3178;BME280;38141;42.666;23.344;2023-06-10T11:59:03;94054.81;;;28.51;45.00
3178;BME280;38141;42.666;23.344;2023-06-10T12:01:32;94062.97;;;28.38;44.30
3178;BME280;38141;42.666;23.344;2023-06-10T12:04:02;94090.13;;;28.21;44.96
3178;BME280;38141;42.666;23.344;2023-06-10T12:06:43;94084.69;;;27.71;45.12
3178;BME280;38141;42.666;23.344;2023-06-10T12:09:14;94083.44;;;28.41;44.24
3178;BME280;38141;42.666;23.344;2023-06-10T12:11:42;94081.69;;;28.43;43.87
3178;BME280;38141;42.666;23.344;2023-06-10T12:14:09;94051.00;;;28.54;43.74
3178;BME280;38141;42.666;23.344;2023-06-10T12:16:36;94076.59;;;28.47;42.79
3178;BME280;38141;42.666;23.344;2023-06-10T12:19:05;94069.19;;;28.61;42.12
3178;BME280;38141;42.666;23.344;2023-06-10T12:21:33;94052.81;;;28.93;40.04
3178;BME280;38141;42.666;23.344;2023-06-10T12:24:08;94049.50;;;29.24;40.41
3178;BME280;38141;42.666;23.344;2023-06-10T12:26:40;94027.72;;;29.23;39.05
3178;BME280;38141;42.666;23.344;2023-06-10T12:29:21;94051.00;;;29.31;39.53
3178;BME280;38141;42.666;23.344;2023-06-10T12:31:58;94074.47;;;29.41;37.09
3178;BME280;38141;42.666;23.344;2023-06-10T12:34:34;94048.69;;;29.35;37.17
3178;BME280;38141;42.666;23.344;2023-06-10T12:37:02;94071.78;;;29.59;38.14
3178;BME280;38141;42.666;23.344;2023-06-10T12:39:30;94046.56;;;29.71;38.06
3178;BME280;38141;42.666;23.344;2023-06-10T12:41:57;94025.34;;;29.86;37.02
3178;BME280;38141;42.666;23.344;2023-06-10T12:44:31;94049.28;;;30.25;37.44
3178;BME280;38141;42.666;23.344;2023-06-10T12:46:59;94049.72;;;30.10;38.45
3178;BME280;38141;42.666;23.344;2023-06-10T12:49:25;94050.22;;;29.60;39.54
3178;BME280;38141;42.666;23.344;2023-06-10T12:51:54;94046.06;;;29.12;40.21
3178;BME280;38141;42.666;23.344;2023-06-10T12:54:21;94051.91;;;29.09;38.83
3178;BME280;38141;42.666;23.344;2023-06-10T12:56:48;94048.16;;;29.36;40.06
3178;BME280;38141;42.666;23.344;2023-06-10T12:59:15;94056.69;;;29.74;40.19
3178;BME280;38141;42.666;23.344;2023-06-10T13:01:42;94056.34;;;28.47;42.18
3178;BME280;38141;42.666;23.344;2023-06-10T13:04:08;94041.19;;;28.42;42.04
3178;BME280;38141;42.666;23.344;2023-06-10T13:06:35;94060.84;;;29.02;40.80
3178;BME280;38141;42.666;23.344;2023-06-10T13:09:05;93964.66;;;28.60;40.86
3178;BME280;38141;42.666;23.344;2023-06-10T13:11:36;94031.03;;;29.21;40.57